Terminal Aerodrome Forecast
Issued by NWS

Home | Current Version | Previous Version | Text Only | Print | Product List | Glossary On
Versions: 1 2 3 4 5 6 7 8 9 10 11 12 13 14 15 16 17 18 19 20 21 22 23 24 25 26 27
000
FTUS44 KCRP 260026 AAA
TAFALI
TAF AMD
KALI 260026Z 2600/2624 12008KT P6SM FEW015
      TEMPO 2600/2604 BKN015
     FM260500 14006KT 4SM BR SCT007
     FM260700 16003KT 1/2SM FG OVC003
     FM261400 VRB05KT 4SM BR SCT007 BKN015
     FM261600 16005KT P6SM SCT025 BKN035
     FM262100 21006KT P6SM SKC=

USA.gov is the U.S. government's official web portal to all federal, state and local government web resources and services.